aviador You're here:

OKBK Decoded Metar

KUWAIT in KUWAIT
Report Time2018-01-19 11:00:00
UTC Time2018-01-19 11:25:27
Flight Rules ifr IFR
Wind160° at 24 kt
W.Decomp.*RWY 15: 23.8 kt HW 2.9 kt RCW
W.Rank160° ranks 8
Current wind is above 160° avg. (7.5)
Visibility2500 m
Phenomena:Heavy Blowing Widespread Dust
Clouds:N/A
Expected CloudBase > 8,400 ft AGL from Temp-Dew spread
CeilingNone
Temp23°C (ISA +8)
Dew Point02°C (25% RH)
AAT12.7°C
QNH1011 hPa
Density Alt1,319 ft
Elevation180 ft
Report Wrong Elevation
Raw Report
METAR OKBK 191100Z 16024KT 2500 +BLDU NSC 23/02 Q1011 NOSIG=

Extra information for OKBK:More info

Metar Taf Metar & Taf Last 4 Metars F.Rules Stats Wind Profile Meteogram Temp Stats Airport Information Weather charts Add Link Nearby VenuesMetar ALERT Operation Metar Decoded Social comments